createdAt,value
2022-11-27T00:01:16.497Z,98.10
2022-11-27T00:03:43.930Z,98.10
2022-11-27T00:06:16.198Z,98.10
2022-11-27T00:08:44.364Z,98.10
2022-11-27T00:11:20.273Z,98.00
2022-11-27T00:13:48.212Z,98.00
2022-11-27T00:16:15.921Z,98.00
2022-11-27T00:18:43.692Z,98.00
2022-11-27T00:21:23.062Z,98.00
2022-11-27T00:23:51.346Z,98.00
2022-11-27T00:26:18.720Z,98.00
2022-11-27T00:28:46.302Z,98.00
2022-11-27T00:31:18.140Z,98.00
2022-11-27T00:33:45.312Z,98.00
2022-11-27T00:36:13.427Z,98.00
2022-11-27T00:38:40.640Z,98.10
2022-11-27T00:41:09.949Z,98.00
2022-11-27T00:43:43.928Z,98.10
2022-11-27T00:46:13.865Z,98.10
2022-11-27T00:48:41.966Z,98.10
2022-11-27T00:51:11.442Z,98.10
2022-11-27T00:53:38.570Z,98.10
2022-11-27T00:56:05.762Z,98.10
2022-11-27T00:58:33.032Z,98.10
2022-11-27T01:01:02.722Z,98.10
2022-11-27T01:03:30.381Z,98.00
2022-11-27T01:05:58.015Z,98.00
2022-11-27T01:08:25.050Z,98.00
2022-11-27T01:10:57.078Z,98.00
2022-11-27T01:13:26.190Z,98.00
2022-11-27T01:16:08.233Z,98.00
2022-11-27T01:18:36.917Z,98.00
2022-11-27T01:21:04.937Z,97.90
2022-11-27T01:23:32.531Z,98.00
2022-11-27T01:26:04.158Z,98.00
2022-11-27T01:28:31.808Z,98.00
2022-11-27T01:31:03.689Z,98.00
2022-11-27T01:33:31.187Z,98.00
2022-11-27T01:36:01.035Z,98.00
2022-11-27T01:38:29.210Z,98.00
2022-11-27T01:40:58.907Z,98.00
2022-11-27T01:43:44.282Z,98.00
2022-11-27T01:46:23.095Z,98.00
2022-11-27T01:48:53.077Z,97.90
2022-11-27T01:51:22.178Z,97.90
2022-11-27T01:53:50.039Z,97.90
2022-11-27T01:56:17.748Z,97.90
2022-11-27T01:58:44.853Z,97.90
2022-11-27T02:01:11.948Z,97.90
2022-11-27T02:03:38.978Z,97.90
2022-11-27T02:06:06.160Z,97.90
2022-11-27T02:08:33.355Z,98.00
2022-11-27T02:11:13.358Z,98.00
2022-11-27T02:13:58.375Z,98.00
2022-11-27T02:16:41.522Z,98.00
2022-11-27T02:19:55.192Z,98.10
2022-11-27T02:22:43.067Z,98.10
2022-11-27T02:25:33.642Z,98.10
2022-11-27T02:28:38.302Z,98.10
2022-11-27T02:31:34.639Z,98.00
2022-11-27T02:34:25.354Z,98.00
2022-11-27T02:37:08.084Z,98.00
2022-11-27T02:39:56.357Z,98.00
2022-11-27T02:42:25.566Z,98.10
2022-11-27T02:45:01.417Z,98.10
2022-11-27T02:47:30.288Z,98.10
2022-11-27T02:49:59.130Z,98.20
2022-11-27T02:52:28.014Z,98.20
2022-11-27T02:54:59.568Z,98.10
2022-11-27T02:57:28.129Z,98.00
2022-11-27T02:59:56.970Z,98.10
2022-11-27T03:02:30.247Z,97.90
2022-11-27T03:05:00.623Z,97.90
2022-11-27T03:07:41.955Z,97.90
2022-11-27T03:10:24.605Z,97.90
2022-11-27T03:12:52.251Z,97.90
2022-11-27T03:15:21.372Z,97.90
2022-11-27T03:18:22.748Z,97.90
2022-11-27T03:21:00.943Z,97.90
2022-11-27T03:23:28.397Z,97.90
2022-11-27T03:25:55.383Z,97.90
2022-11-27T03:28:23.065Z,98.00
2022-11-27T03:30:50.205Z,97.90
2022-11-27T03:33:18.324Z,97.90
2022-11-27T03:35:45.237Z,97.90
2022-11-27T03:38:12.498Z,97.90
2022-11-27T03:40:54.595Z,98.00
2022-11-27T03:43:29.752Z,98.00
2022-11-27T03:46:08.925Z,98.00
2022-11-27T03:48:43.515Z,98.00
2022-11-27T03:51:28.537Z,97.90
2022-11-27T03:54:13.113Z,98.00
2022-11-27T03:56:59.346Z,98.00
2022-11-27T03:59:31.394Z,98.00
2022-11-27T04:01:58.587Z,98.00
2022-11-27T04:04:25.975Z,98.00
2022-11-27T04:06:52.985Z,98.00
2022-11-27T04:09:20.320Z,97.90
2022-11-27T04:11:47.306Z,97.90
2022-11-27T04:14:14.318Z,97.80
2022-11-27T04:16:41.336Z,97.80
2022-11-27T04:19:09.699Z,97.80
2022-11-27T04:21:36.738Z,97.80
2022-11-27T04:24:03.860Z,97.70
2022-11-27T04:26:30.888Z,97.70
2022-11-27T04:28:57.919Z,97.70
2022-11-27T04:31:25.047Z,97.70
2022-11-27T04:33:51.991Z,97.70
2022-11-27T04:36:18.994Z,97.60
2022-11-27T04:38:45.951Z,97.60
2022-11-27T04:41:13.212Z,97.60
2022-11-27T04:43:40.190Z,97.70
2022-11-27T04:46:07.189Z,97.70
2022-11-27T04:48:34.431Z,97.70
2022-11-27T04:51:01.383Z,97.70
2022-11-27T04:53:28.388Z,97.70
2022-11-27T04:55:55.359Z,97.70
2022-11-27T04:58:22.403Z,97.70
2022-11-27T05:00:49.586Z,97.70
2022-11-27T05:03:16.962Z,97.70
2022-11-27T05:05:44.022Z,97.60
2022-11-27T05:08:11.083Z,97.60
2022-11-27T05:10:38.156Z,97.60
2022-11-27T05:13:05.114Z,97.60
2022-11-27T05:15:32.087Z,97.60
2022-11-27T05:17:58.989Z,97.60
2022-11-27T05:20:25.961Z,97.70
2022-11-27T05:22:52.925Z,97.70
2022-11-27T05:25:19.989Z,97.70
2022-11-27T05:27:46.893Z,97.60
2022-11-27T05:30:13.927Z,97.70
2022-11-27T05:32:40.844Z,97.70
2022-11-27T05:35:08.134Z,97.70
2022-11-27T05:37:35.123Z,97.70
2022-11-27T05:40:02.261Z,97.70
2022-11-27T05:42:29.221Z,97.70
2022-11-27T05:44:58.421Z,97.70
2022-11-27T05:47:25.764Z,97.70
2022-11-27T05:49:52.875Z,97.70
2022-11-27T05:52:19.904Z,97.80
2022-11-27T05:54:47.035Z,97.80
2022-11-27T05:57:14.008Z,97.70
2022-11-27T05:59:41.038Z,97.80
2022-11-27T06:02:08.321Z,97.70
2022-11-27T06:04:35.406Z,97.60
2022-11-27T06:07:02.377Z,97.60
2022-11-27T06:09:29.360Z,97.60
2022-11-27T06:11:56.650Z,97.90
2022-11-27T06:14:23.775Z,97.70
2022-11-27T06:16:50.881Z,97.80
2022-11-27T06:19:17.939Z,97.70
2022-11-27T06:21:46.506Z,97.70
2022-11-27T06:24:13.647Z,97.70
2022-11-27T06:26:40.776Z,97.70
2022-11-27T06:29:07.731Z,97.70
2022-11-27T06:31:35.378Z,97.70
2022-11-27T06:34:03.410Z,97.70
2022-11-27T06:36:33.928Z,97.70
2022-11-27T06:39:01.666Z,97.70
2022-11-27T06:41:28.891Z,97.70
2022-11-27T06:43:58.217Z,97.80
2022-11-27T06:46:26.740Z,97.80
2022-11-27T06:48:54.792Z,97.80
2022-11-27T06:51:24.430Z,97.80
2022-11-27T06:53:52.118Z,97.80
2022-11-27T06:56:22.025Z,97.90
2022-11-27T06:58:56.137Z,97.80
2022-11-27T07:01:24.551Z,97.60
2022-11-27T07:03:51.802Z,97.50
2022-11-27T07:06:21.359Z,97.40
2022-11-27T07:08:48.464Z,97.40
2022-11-27T07:11:21.292Z,97.50
2022-11-27T07:13:49.808Z,97.60
2022-11-27T07:16:18.387Z,97.60
2022-11-27T07:18:48.300Z,97.60
2022-11-27T07:21:16.007Z,97.60
2022-11-27T07:23:43.634Z,97.60
2022-11-27T07:26:13.790Z,97.50
2022-11-27T07:28:43.853Z,97.60
2022-11-27T07:31:12.923Z,97.60
2022-11-27T07:33:40.074Z,97.60
2022-11-27T07:36:08.825Z,97.60
2022-11-27T07:38:35.798Z,97.60
2022-11-27T07:41:04.520Z,97.60
2022-11-27T07:43:33.035Z,97.60
2022-11-27T07:46:04.441Z,97.60
2022-11-27T07:48:31.502Z,97.60
2022-11-27T07:50:58.688Z,97.60
2022-11-27T07:53:25.700Z,97.60
2022-11-27T07:55:52.717Z,97.50
2022-11-27T07:58:19.659Z,97.40
2022-11-27T08:00:46.861Z,97.40
2022-11-27T08:03:13.850Z,97.40
2022-11-27T08:05:40.832Z,97.30
2022-11-27T08:08:07.835Z,97.20
2022-11-27T08:10:36.414Z,97.20
2022-11-27T08:13:04.133Z,97.20
2022-11-27T08:15:31.808Z,97.10
2022-11-27T08:17:58.981Z,97.10
2022-11-27T08:20:26.252Z,97.00
2022-11-27T08:22:56.936Z,96.90
2022-11-27T08:25:26.763Z,96.80
2022-11-27T08:27:53.888Z,96.70
2022-11-27T08:30:23.780Z,96.70
2022-11-27T08:32:50.935Z,96.60
2022-11-27T08:35:18.034Z,96.50
2022-11-27T08:37:45.377Z,96.40
2022-11-27T08:40:12.496Z,96.30
2022-11-27T08:42:39.653Z,96.30
2022-11-27T08:45:07.095Z,96.20
2022-11-27T08:47:34.139Z,96.10
2022-11-27T08:50:01.120Z,96.00
2022-11-27T08:52:28.120Z,95.90
2022-11-27T08:54:57.741Z,95.80
2022-11-27T08:57:25.458Z,95.70
2022-11-27T08:59:52.430Z,95.60
2022-11-27T09:02:19.437Z,95.60
2022-11-27T09:04:46.393Z,95.50
2022-11-27T09:07:15.752Z,95.40
2022-11-27T09:09:42.989Z,95.30
2022-11-27T09:12:09.942Z,95.30
2022-11-27T09:14:36.998Z,95.30
2022-11-27T09:17:04.217Z,95.20
2022-11-27T09:19:31.352Z,95.10
2022-11-27T09:21:58.650Z,95.10
2022-11-27T09:24:25.696Z,95.00
2022-11-27T09:26:52.668Z,94.90
2022-11-27T09:29:19.847Z,94.80
2022-11-27T09:31:46.971Z,94.70
2022-11-27T09:34:14.975Z,94.70
2022-11-27T09:36:41.951Z,94.60
2022-11-27T09:39:09.064Z,94.60
2022-11-27T09:41:44.624Z,94.50
2022-11-27T09:44:32.375Z,94.50
2022-11-27T09:47:22.273Z,94.50
2022-11-27T09:49:54.790Z,94.50
2022-11-27T09:52:27.697Z,94.40
2022-11-27T09:55:03.978Z,94.40
2022-11-27T09:57:37.758Z,94.40
2022-11-27T10:00:15.732Z,94.30
2022-11-27T10:02:43.478Z,94.20
2022-11-27T10:05:18.674Z,94.10
2022-11-27T10:08:06.955Z,94.00
2022-11-27T10:10:57.026Z,93.90
2022-11-27T10:13:36.649Z,93.80
2022-11-27T10:16:26.765Z,93.60
2022-11-27T10:19:18.766Z,93.70
2022-11-27T10:22:09.411Z,93.30
2022-11-27T10:24:56.238Z,93.10
2022-11-27T10:27:31.609Z,93.00
2022-11-27T10:30:01.208Z,92.90
2022-11-27T10:32:54.797Z,92.80
2022-11-27T10:35:24.230Z,92.80
2022-11-27T10:38:31.497Z,92.60
2022-11-27T10:40:58.439Z,92.30
2022-11-27T10:43:25.861Z,92.40
2022-11-27T10:46:16.880Z,92.40
2022-11-27T10:48:43.952Z,92.40
2022-11-27T10:51:20.808Z,92.40
2022-11-27T10:53:52.186Z,92.20
2022-11-27T10:56:51.347Z,91.50
2022-11-27T10:59:33.137Z,91.40
2022-11-27T11:02:03.430Z,91.30
2022-11-27T11:04:38.075Z,91.20
2022-11-27T11:07:28.261Z,90.50
2022-11-27T11:09:56.431Z,89.00
2022-11-27T11:12:24.256Z,89.30
2022-11-27T11:14:59.323Z,89.30
2022-11-27T11:17:37.265Z,89.20
2022-11-27T11:20:22.505Z,88.50
2022-11-27T11:22:50.065Z,86.50
2022-11-27T11:25:19.064Z,86.80
2022-11-27T11:27:47.724Z,86.90
2022-11-27T11:30:28.979Z,86.70
2022-11-27T11:33:02.280Z,85.50
2022-11-27T11:35:34.785Z,83.80
2022-11-27T11:38:05.414Z,82.60
2022-11-27T11:40:35.643Z,81.20
2022-11-27T11:43:06.595Z,81.50
2022-11-27T11:45:35.215Z,81.80
2022-11-27T11:48:20.676Z,82.30
2022-11-27T11:50:55.872Z,82.40
2022-11-27T11:53:45.535Z,81.80
2022-11-27T11:56:39.885Z,80.40
2022-11-27T11:59:45.439Z,80.00
2022-11-27T12:02:39.177Z,77.40
2022-11-27T12:05:18.686Z,76.20
2022-11-27T12:07:52.589Z,76.60
2022-11-27T12:10:31.950Z,75.50
2022-11-27T12:13:01.846Z,75.00
2022-11-27T12:15:39.913Z,75.80
2022-11-27T12:18:14.724Z,74.60
2022-11-27T12:21:13.403Z,74.80
2022-11-27T12:24:12.513Z,74.50
2022-11-27T12:26:45.383Z,73.70
2022-11-27T12:29:22.878Z,71.80
2022-11-27T12:32:18.585Z,72.80
2022-11-27T12:35:04.419Z,72.40
2022-11-27T12:37:53.165Z,72.50
2022-11-27T12:40:25.753Z,72.90
2022-11-27T12:43:12.610Z,73.20
2022-11-27T12:45:49.754Z,73.60
2022-11-27T12:48:24.195Z,73.90
2022-11-27T12:50:59.253Z,73.80
2022-11-27T12:53:34.951Z,74.10
2022-11-27T12:56:21.131Z,73.50
2022-11-27T12:59:01.178Z,73.20
2022-11-27T13:01:34.373Z,73.50
2022-11-27T13:04:23.516Z,73.30
2022-11-27T13:06:55.071Z,74.00
2022-11-27T13:09:48.461Z,74.40
2022-11-27T13:12:24.331Z,74.00
2022-11-27T13:15:01.845Z,74.30
2022-11-27T13:17:42.920Z,74.30
2022-11-27T13:20:20.790Z,74.70
2022-11-27T13:22:48.711Z,74.80
2022-11-27T13:25:15.838Z,74.00
2022-11-27T13:27:47.199Z,74.00
2022-11-27T13:30:25.933Z,73.90
2022-11-27T13:32:57.544Z,74.20
2022-11-27T13:35:39.947Z,74.70
2022-11-27T13:38:20.833Z,75.10
2022-11-27T13:40:52.160Z,75.40
2022-11-27T13:43:42.514Z,75.60
2022-11-27T13:46:25.191Z,75.90
2022-11-27T13:49:03.508Z,75.00
2022-11-27T13:51:37.046Z,75.00
2022-11-27T13:54:16.355Z,74.80
2022-11-27T13:56:43.718Z,74.90
2022-11-27T13:59:18.212Z,75.00
2022-11-27T14:01:58.180Z,75.30
2022-11-27T14:04:30.875Z,75.60
2022-11-27T14:07:09.769Z,76.10
2022-11-27T14:09:52.695Z,76.60
2022-11-27T14:12:24.536Z,76.90
2022-11-27T14:15:06.926Z,77.10
2022-11-27T14:17:46.316Z,77.00
2022-11-27T14:20:16.448Z,76.40
2022-11-27T14:23:11.264Z,75.90
2022-11-27T14:25:39.823Z,75.30
2022-11-27T14:28:26.101Z,75.70
2022-11-27T14:31:01.289Z,76.30
2022-11-27T14:33:31.367Z,76.40
2022-11-27T14:36:04.615Z,76.50
2022-11-27T14:38:34.048Z,76.60
2022-11-27T14:41:18.858Z,77.10
2022-11-27T14:43:45.895Z,77.40
2022-11-27T14:46:18.700Z,77.90
2022-11-27T14:48:57.199Z,78.30
2022-11-27T14:51:29.644Z,78.60
2022-11-27T14:54:05.650Z,78.80
2022-11-27T14:56:36.328Z,79.00
2022-11-27T14:59:04.246Z,80.00
2022-11-27T15:01:34.916Z,79.50
2022-11-27T15:04:06.283Z,79.70
2022-11-27T15:06:44.018Z,80.10
2022-11-27T15:09:35.110Z,81.00
2022-11-27T15:12:14.283Z,80.80
2022-11-27T15:15:08.680Z,81.20
2022-11-27T15:17:39.615Z,81.50
2022-11-27T15:20:35.985Z,82.00
2022-11-27T15:23:03.433Z,82.40
2022-11-27T15:25:38.296Z,82.50
2022-11-27T15:28:23.810Z,82.80
2022-11-27T15:30:51.538Z,83.10
2022-11-27T15:33:27.392Z,83.20
2022-11-27T15:36:13.120Z,83.40
2022-11-27T15:38:41.422Z,83.60
2022-11-27T15:41:20.591Z,84.00
2022-11-27T15:43:47.770Z,84.40
2022-11-27T15:46:16.125Z,84.50
2022-11-27T15:48:43.198Z,84.90
2022-11-27T15:51:10.199Z,85.20
2022-11-27T15:53:37.170Z,85.50
2022-11-27T15:56:04.382Z,85.90
2022-11-27T15:58:31.373Z,86.00
2022-11-27T16:00:58.344Z,86.30
2022-11-27T16:03:25.331Z,86.50
2022-11-27T16:05:52.352Z,86.70
2022-11-27T16:08:19.321Z,87.00
2022-11-27T16:10:46.323Z,87.20
2022-11-27T16:13:13.300Z,87.50
2022-11-27T16:15:41.539Z,87.60
2022-11-27T16:18:08.603Z,87.80
2022-11-27T16:20:35.677Z,88.00
2022-11-27T16:23:02.672Z,88.30
2022-11-27T16:25:29.699Z,88.50
2022-11-27T16:28:02.210Z,88.60
2022-11-27T16:30:29.733Z,88.70
2022-11-27T16:32:56.782Z,88.90
2022-11-27T16:35:25.882Z,89.00
2022-11-27T16:37:53.731Z,89.30
2022-11-27T16:40:20.980Z,89.50
2022-11-27T16:42:48.758Z,89.80
2022-11-27T16:45:15.858Z,90.00
2022-11-27T16:47:42.858Z,90.10
2022-11-27T16:50:10.419Z,90.20
2022-11-27T16:52:37.591Z,90.30
2022-11-27T16:55:05.133Z,90.60
2022-11-27T16:57:32.276Z,90.30
2022-11-27T16:59:59.424Z,90.40
2022-11-27T17:02:28.869Z,90.50
2022-11-27T17:04:56.341Z,90.70
2022-11-27T17:07:23.382Z,90.80
2022-11-27T17:09:50.478Z,91.00
2022-11-27T17:12:17.491Z,91.10
2022-11-27T17:14:46.438Z,91.20
2022-11-27T17:17:14.176Z,91.30
2022-11-27T17:19:42.027Z,91.40
2022-11-27T17:22:10.001Z,91.60
2022-11-27T17:24:37.943Z,91.70
2022-11-27T17:27:06.996Z,91.70
2022-11-27T17:29:35.893Z,91.80
2022-11-27T17:32:04.042Z,91.90
2022-11-27T17:34:32.422Z,92.00
2022-11-27T17:36:59.484Z,92.20
2022-11-27T17:39:26.768Z,92.10
2022-11-27T17:41:53.799Z,92.10
2022-11-27T17:44:20.832Z,92.30
2022-11-27T17:46:50.650Z,92.50
2022-11-27T17:49:19.702Z,92.60
2022-11-27T17:51:49.010Z,92.70
2022-11-27T17:54:17.358Z,92.70
2022-11-27T17:56:45.216Z,92.80
2022-11-27T17:59:12.357Z,92.90
2022-11-27T18:01:40.088Z,92.90
2022-11-27T18:04:07.480Z,93.00
2022-11-27T18:06:36.090Z,93.10
2022-11-27T18:09:03.878Z,93.30
2022-11-27T18:11:36.430Z,93.30
2022-11-27T18:14:04.151Z,93.30
2022-11-27T18:16:36.745Z,93.40
2022-11-27T18:19:09.957Z,93.60
2022-11-27T18:21:38.145Z,93.90
2022-11-27T18:27:11.551Z,94.10
2022-11-27T18:29:41.055Z,94.30
2022-11-27T18:32:09.202Z,94.40
2022-11-27T18:34:36.338Z,94.60
2022-11-27T18:37:04.235Z,94.70
2022-11-27T18:39:31.845Z,94.70
2022-11-27T18:41:58.928Z,94.80
2022-11-27T18:44:26.790Z,94.90
2022-11-27T18:46:53.912Z,95.00
2022-11-27T18:49:22.923Z,95.10
2022-11-27T18:51:52.884Z,95.20
2022-11-27T18:54:21.793Z,95.20
2022-11-27T18:56:48.867Z,95.30
2022-11-27T18:59:16.023Z,95.40
2022-11-27T19:01:45.043Z,95.50
2022-11-27T19:04:12.533Z,95.60
2022-11-27T19:06:42.234Z,95.50
2022-11-27T19:09:11.096Z,95.40
2022-11-27T19:11:38.728Z,95.40
2022-11-27T19:14:06.527Z,95.50
2022-11-27T19:16:48.696Z,95.50
2022-11-27T19:22:09.100Z,95.50
2022-11-27T19:24:37.728Z,95.50
2022-11-27T19:27:04.762Z,95.50
2022-11-27T19:29:31.775Z,95.60
2022-11-27T19:32:01.087Z,95.70
2022-11-27T19:34:28.819Z,95.70
2022-11-27T19:36:58.223Z,96.10
2022-11-27T19:39:27.276Z,95.90
2022-11-27T19:41:54.684Z,96.00
2022-11-27T19:44:21.710Z,96.00
2022-11-27T19:46:48.863Z,95.90
2022-11-27T19:49:17.980Z,95.80
2022-11-27T19:51:46.150Z,95.70
2022-11-27T19:54:16.963Z,95.60
2022-11-27T19:56:44.186Z,95.60
2022-11-27T19:59:12.919Z,95.60
2022-11-27T20:01:41.813Z,95.60
2022-11-27T20:04:11.664Z,95.70
2022-11-27T20:06:39.491Z,95.80
2022-11-27T20:09:07.985Z,95.90
2022-11-27T20:11:38.039Z,95.90
2022-11-27T20:14:06.297Z,96.00
2022-11-27T20:16:35.429Z,96.00
2022-11-27T20:19:05.592Z,96.10
2022-11-27T20:21:34.804Z,96.10
2022-11-27T20:24:03.846Z,96.00
2022-11-27T20:26:31.038Z,96.00
2022-11-27T20:28:59.848Z,96.00
2022-11-27T20:31:30.211Z,96.10
2022-11-27T20:34:02.219Z,96.10
2022-11-27T20:36:33.092Z,96.20
2022-11-27T20:39:01.520Z,96.20
2022-11-27T20:41:29.793Z,96.30
2022-11-27T20:43:59.908Z,96.30
2022-11-27T20:46:29.002Z,96.40
2022-11-27T20:48:56.965Z,96.40
2022-11-27T20:51:28.603Z,96.40
2022-11-27T20:53:57.902Z,96.40
2022-11-27T20:56:25.943Z,96.40
2022-11-27T20:58:53.497Z,96.40
2022-11-27T21:01:33.089Z,96.40
2022-11-27T21:04:09.280Z,96.50
2022-11-27T21:06:43.436Z,96.60
2022-11-27T21:09:13.974Z,96.60
2022-11-27T21:11:42.820Z,96.80
2022-11-27T21:14:12.153Z,96.50
2022-11-27T21:16:44.954Z,96.50
2022-11-27T21:19:25.316Z,96.50
2022-11-27T21:21:55.469Z,96.60
2022-11-27T21:24:25.492Z,96.60
2022-11-27T21:26:52.944Z,96.70
2022-11-27T21:29:25.436Z,96.70
2022-11-27T21:31:55.418Z,96.80
2022-11-27T21:34:23.467Z,96.80
2022-11-27T21:36:50.653Z,96.70
2022-11-27T21:39:21.799Z,96.70
2022-11-27T21:41:50.587Z,96.80
2022-11-27T21:44:19.659Z,96.80
2022-11-27T21:46:48.146Z,96.70
2022-11-27T21:49:17.927Z,96.70
2022-11-27T21:51:45.127Z,96.70
2022-11-27T21:54:15.325Z,96.60
2022-11-27T21:56:42.402Z,96.60
2022-11-27T21:59:13.610Z,96.60
2022-11-27T22:01:41.415Z,96.60
2022-11-27T22:04:08.445Z,96.60
2022-11-27T22:06:38.192Z,96.60
2022-11-27T22:09:10.505Z,96.60
2022-11-27T22:11:40.753Z,96.70
2022-11-27T22:14:08.612Z,96.70
2022-11-27T22:16:44.450Z,96.80
2022-11-27T22:19:14.284Z,96.80
2022-11-27T22:21:41.631Z,96.90
2022-11-27T22:24:15.068Z,96.90
2022-11-27T22:26:45.329Z,97.00
2022-11-27T22:29:13.944Z,97.00
2022-11-27T22:31:41.588Z,97.00
2022-11-27T22:34:08.790Z,97.00
2022-11-27T22:36:35.814Z,97.10
2022-11-27T22:39:06.675Z,97.10
2022-11-27T22:41:36.663Z,97.00
2022-11-27T22:44:16.257Z,97.00
2022-11-27T22:46:44.081Z,97.00
2022-11-27T22:49:13.875Z,96.90
2022-11-27T22:51:41.520Z,96.90
2022-11-27T22:54:11.111Z,96.80
2022-11-27T22:56:39.363Z,96.70
2022-11-27T22:59:31.223Z,96.70
2022-11-27T23:01:54.603Z,96.80
2022-11-27T23:04:21.638Z,96.90
2022-11-27T23:06:48.846Z,96.90
2022-11-27T23:09:18.110Z,96.90
2022-11-27T23:11:46.072Z,96.90
2022-11-27T23:14:13.457Z,96.80
2022-11-27T23:16:40.604Z,96.80
2022-11-27T23:19:07.829Z,96.70
2022-11-27T23:21:37.576Z,96.70
2022-11-27T23:24:05.857Z,96.70
2022-11-27T23:26:33.222Z,96.80
2022-11-27T23:29:00.259Z,96.70
2022-11-27T23:31:31.241Z,96.70
2022-11-27T23:34:01.707Z,96.80
2022-11-27T23:36:29.680Z,96.80
2022-11-27T23:38:58.895Z,96.90
2022-11-27T23:41:25.895Z,96.90
2022-11-27T23:43:53.825Z,96.80
2022-11-27T23:46:23.611Z,96.80
2022-11-27T23:48:50.992Z,96.70
2022-11-27T23:51:20.897Z,96.80
2022-11-27T23:53:50.348Z,96.80
2022-11-27T23:56:23.516Z,96.70
2022-11-27T23:58:51.063Z,96.80
